Terminal Aerodrome Forecast
Issued by NWS Jackson, MS

Home | Current Version | Previous Version | Text Only | Print | Product List | Glossary On
Versions: 1 2 3 4 5 6 7 8 9 10 11 12 13 14
263
FTUS44 KMEG 270736 AAA
TAFTUP
TAF AMD
KTUP 270736Z 2708/2806 15005KT P6SM SCT015
      TEMPO 2708/2710 BKN015
     FM271000 16003KT P6SM VCTS BKN020CB
      TEMPO 2711/2714 4SM BR OVC015
     FM271800 19009KT P6SM -TSRA OVC050CB
      TEMPO 2720/2724 4SM -TSRA OVC025CB
     FM280100 22008KT 4SM -TSRA OVC015CB=

USA.gov is the U.S. government's official web portal to all federal, state and local government web resources and services.